createdAt,value
2018-09-24T00:01:37.007Z,94.20
2018-09-24T00:04:05.632Z,94.30
2018-09-24T00:06:34.309Z,94.30
2018-09-24T00:09:03.033Z,94.60
2018-09-24T00:11:31.928Z,94.50
2018-09-24T00:14:00.636Z,94.70
2018-09-24T00:16:29.355Z,94.70
2018-09-24T00:18:58.224Z,94.50
2018-09-24T00:21:26.868Z,94.40
2018-09-24T00:23:55.468Z,94.40
2018-09-24T00:26:24.247Z,94.20
2018-09-24T00:28:53.228Z,94.20
2018-09-24T00:31:21.972Z,94.30
2018-09-24T00:33:50.661Z,94.10
2018-09-24T00:36:19.359Z,94.10
2018-09-24T00:38:48.067Z,94.20
2018-09-24T00:41:16.759Z,94.10
2018-09-24T00:43:45.477Z,94.20
2018-09-24T00:46:14.148Z,93.90
2018-09-24T00:48:42.812Z,94.00
2018-09-24T00:51:11.448Z,93.80
2018-09-24T00:53:40.101Z,93.90
2018-09-24T00:56:08.788Z,93.90
2018-09-24T00:58:37.444Z,94.00
2018-09-24T01:01:06.088Z,94.00
2018-09-24T01:03:34.763Z,94.30
2018-09-24T01:06:03.508Z,94.10
2018-09-24T01:08:32.260Z,94.30
2018-09-24T01:11:00.964Z,94.30
2018-09-24T01:13:29.607Z,94.60
2018-09-24T01:15:58.256Z,94.60
2018-09-24T01:18:26.920Z,94.40
2018-09-24T01:20:55.509Z,94.00
2018-09-24T01:23:24.214Z,94.30
2018-09-24T01:25:52.868Z,94.40
2018-09-24T01:28:21.496Z,94.30
2018-09-24T01:30:50.162Z,94.00
2018-09-24T01:33:19.120Z,94.30
2018-09-24T01:35:47.860Z,94.00
2018-09-24T01:38:16.530Z,94.20
2018-09-24T01:40:45.160Z,93.80
2018-09-24T01:43:13.833Z,93.80
2018-09-24T01:45:42.563Z,93.70
2018-09-24T01:48:11.221Z,94.00
2018-09-24T01:50:39.851Z,93.90
2018-09-24T01:53:08.653Z,94.10
2018-09-24T01:55:37.821Z,93.90
2018-09-24T01:58:06.613Z,94.10
2018-09-24T02:00:35.235Z,94.10
2018-09-24T02:03:03.900Z,93.80
2018-09-24T02:05:32.577Z,93.90
2018-09-24T02:08:01.220Z,93.90
2018-09-24T02:10:29.895Z,94.20
2018-09-24T02:12:58.712Z,94.00
2018-09-24T02:15:29.986Z,93.70
2018-09-24T02:17:58.699Z,94.00
2018-09-24T02:20:27.364Z,94.10
2018-09-24T02:22:55.987Z,94.00
2018-09-24T02:25:24.712Z,94.10
2018-09-24T02:27:53.348Z,94.10
2018-09-24T02:30:22.069Z,94.10
2018-09-24T02:32:50.793Z,94.10
2018-09-24T02:35:19.622Z,94.10
2018-09-24T02:37:48.300Z,94.30
2018-09-24T02:40:23.293Z,94.10
2018-09-24T02:42:51.988Z,94.30
2018-09-24T02:45:21.049Z,93.80
2018-09-24T02:47:49.748Z,93.70
2018-09-24T02:50:18.439Z,93.70
2018-09-24T02:52:47.129Z,93.80
2018-09-24T02:55:18.963Z,93.20
2018-09-24T02:57:47.687Z,93.10
2018-09-24T03:00:21.432Z,93.00
2018-09-24T03:02:50.168Z,92.90
2018-09-24T03:05:18.793Z,92.90
2018-09-24T03:07:47.545Z,92.70
2018-09-24T03:10:16.307Z,92.90
2018-09-24T03:12:48.758Z,93.10
2018-09-24T03:15:17.504Z,92.80
2018-09-24T03:17:46.168Z,92.90
2018-09-24T03:20:15.083Z,92.90
2018-09-24T03:22:44.681Z,93.00
2018-09-24T03:25:18.888Z,92.90
2018-09-24T03:27:47.943Z,93.10
2018-09-24T03:30:17.061Z,93.00
2018-09-24T03:32:45.948Z,93.20
2018-09-24T03:35:14.641Z,93.10
2018-09-24T03:37:43.315Z,93.10
2018-09-24T03:40:12.028Z,93.70
2018-09-24T03:42:40.701Z,93.50
2018-09-24T03:45:09.457Z,93.60
2018-09-24T03:47:38.116Z,93.50
2018-09-24T03:50:06.885Z,93.80
2018-09-24T03:52:35.514Z,93.90
2018-09-24T03:55:04.299Z,94.10
2018-09-24T03:57:33.017Z,94.20
2018-09-24T04:00:01.714Z,94.30
2018-09-24T04:02:30.412Z,94.30
2018-09-24T04:05:04.540Z,94.70
2018-09-24T04:07:38.573Z,94.60
2018-09-24T04:10:12.604Z,94.70
2018-09-24T04:12:46.590Z,94.70
2018-09-24T04:15:20.443Z,95.00
2018-09-24T04:17:54.270Z,95.00
2018-09-24T04:20:28.409Z,95.10
2018-09-24T04:23:02.148Z,95.20
2018-09-24T04:25:36.055Z,94.90
2018-09-24T04:28:09.979Z,94.90
2018-09-24T04:30:43.795Z,94.80
2018-09-24T04:33:17.742Z,94.80
2018-09-24T04:35:51.676Z,94.60
2018-09-24T04:38:25.665Z,94.60
2018-09-24T04:40:59.534Z,94.60
2018-09-24T04:43:33.501Z,94.50
2018-09-24T04:46:07.535Z,94.80
2018-09-24T04:48:41.626Z,95.00
2018-09-24T04:51:15.407Z,94.50
2018-09-24T04:53:49.375Z,94.50
2018-09-24T04:56:23.247Z,94.50
2018-09-24T04:58:57.042Z,94.70
2018-09-24T05:01:30.937Z,94.80
2018-09-24T05:04:05.205Z,95.10
2018-09-24T05:06:39.195Z,94.90
2018-09-24T05:09:14.009Z,95.00
2018-09-24T05:11:48.076Z,95.10
2018-09-24T05:14:22.115Z,95.10
2018-09-24T05:16:56.119Z,95.20
2018-09-24T05:19:30.109Z,95.50
2018-09-24T05:22:03.926Z,95.60
2018-09-24T05:24:37.779Z,95.60
2018-09-24T05:27:11.917Z,95.60
2018-09-24T05:29:45.791Z,95.70
2018-09-24T05:32:19.747Z,95.60
2018-09-24T05:34:55.667Z,95.80
2018-09-24T05:37:29.508Z,96.20
2018-09-24T05:40:03.460Z,96.00
2018-09-24T05:42:37.262Z,95.90
2018-09-24T05:45:11.879Z,95.80
2018-09-24T05:47:45.884Z,95.80
2018-09-24T05:50:20.132Z,95.80
2018-09-24T05:52:53.902Z,95.90
2018-09-24T05:55:27.888Z,95.90
2018-09-24T05:58:02.783Z,95.90
2018-09-24T06:00:36.676Z,96.00
2018-09-24T06:03:10.571Z,95.90
2018-09-24T06:05:44.394Z,96.10
2018-09-24T06:08:18.455Z,96.00
2018-09-24T06:10:52.427Z,95.80
2018-09-24T06:13:26.404Z,95.90
2018-09-24T06:16:00.448Z,95.80
2018-09-24T06:18:34.370Z,95.90
2018-09-24T06:21:09.147Z,95.80
2018-09-24T06:23:43.138Z,95.90
2018-09-24T06:26:17.207Z,96.00
2018-09-24T06:28:51.068Z,95.90
2018-09-24T06:31:25.115Z,95.60
2018-09-24T06:33:59.391Z,95.70
2018-09-24T06:36:33.299Z,95.70
2018-09-24T06:39:07.271Z,95.60
2018-09-24T06:41:41.160Z,95.70
2018-09-24T06:44:15.203Z,95.50
2018-09-24T06:46:49.120Z,95.40
2018-09-24T06:49:23.106Z,95.50
2018-09-24T06:51:57.002Z,95.50
2018-09-24T06:54:31.154Z,95.40
2018-09-24T06:57:05.021Z,95.40
2018-09-24T06:59:38.884Z,95.00
2018-09-24T07:02:12.781Z,94.90
2018-09-24T07:04:46.740Z,94.80
2018-09-24T07:07:20.747Z,94.50
2018-09-24T07:09:54.775Z,94.60
2018-09-24T07:12:28.839Z,93.60
2018-09-24T07:15:02.787Z,93.20
2018-09-24T07:17:36.842Z,92.60
2018-09-24T07:20:10.916Z,93.00
2018-09-24T07:22:44.923Z,92.40
2018-09-24T07:25:18.935Z,91.70
2018-09-24T07:27:52.838Z,92.50
2018-09-24T07:30:26.858Z,92.60
2018-09-24T07:33:00.699Z,92.10
2018-09-24T07:35:34.691Z,92.10
2018-09-24T07:38:08.684Z,91.20
2018-09-24T07:40:42.472Z,91.30
2018-09-24T07:43:16.488Z,91.10
2018-09-24T07:45:50.375Z,91.10
2018-09-24T07:48:24.235Z,91.00
2018-09-24T07:50:58.187Z,90.90
2018-09-24T07:53:32.126Z,89.20
2018-09-24T07:56:06.039Z,90.30
2018-09-24T07:58:40.060Z,90.20
2018-09-24T08:01:14.483Z,90.40
2018-09-24T08:03:48.528Z,90.10
2018-09-24T08:06:22.711Z,89.90
2018-09-24T08:08:56.482Z,89.00
2018-09-24T08:11:30.299Z,87.80
2018-09-24T08:14:04.168Z,86.80
2018-09-24T08:16:38.231Z,86.50
2018-09-24T08:19:12.153Z,87.20
2018-09-24T08:21:45.969Z,84.90
2018-09-24T08:24:19.910Z,84.20
2018-09-24T08:26:53.899Z,84.10
2018-09-24T08:29:27.839Z,85.30
2018-09-24T08:32:01.632Z,86.80
2018-09-24T08:34:35.623Z,85.50
2018-09-24T08:37:09.542Z,86.70
2018-09-24T08:39:43.434Z,85.90
2018-09-24T08:42:17.480Z,83.40
2018-09-24T08:44:51.371Z,84.30
2018-09-24T08:47:25.230Z,83.40
2018-09-24T08:49:59.335Z,82.80
2018-09-24T08:52:33.232Z,79.90
2018-09-24T08:55:07.183Z,78.60
2018-09-24T08:57:41.127Z,77.30
2018-09-24T09:00:15.100Z,81.10
2018-09-24T09:02:49.098Z,80.10
2018-09-24T09:05:22.799Z,78.30
2018-09-24T09:07:56.637Z,77.30
2018-09-24T09:10:30.491Z,79.00
2018-09-24T09:13:04.423Z,80.00
2018-09-24T09:15:38.242Z,78.70
2018-09-24T09:18:12.112Z,78.80
2018-09-24T09:20:46.179Z,77.20
2018-09-24T09:23:20.075Z,76.20
2018-09-24T09:25:53.939Z,76.70
2018-09-24T09:28:28.022Z,78.20
2018-09-24T09:31:02.025Z,75.60
2018-09-24T09:33:36.365Z,77.60
2018-09-24T09:36:10.354Z,74.60
2018-09-24T09:38:45.071Z,76.30
2018-09-24T09:41:18.946Z,74.70
2018-09-24T09:43:52.856Z,72.20
2018-09-24T09:46:26.731Z,76.00
2018-09-24T09:49:00.643Z,74.00
2018-09-24T09:51:34.532Z,75.10
2018-09-24T09:54:08.400Z,75.10
2018-09-24T09:56:42.345Z,70.70
2018-09-24T09:59:16.428Z,71.40
2018-09-24T10:01:50.275Z,71.40
2018-09-24T10:04:24.139Z,69.70
2018-09-24T10:06:57.935Z,70.10
2018-09-24T10:09:32.039Z,73.40
2018-09-24T10:12:05.794Z,71.30
2018-09-24T10:14:40.019Z,70.70
2018-09-24T10:17:14.055Z,70.10
2018-09-24T10:19:48.050Z,70.40
2018-09-24T10:22:21.972Z,69.50
2018-09-24T10:24:55.947Z,70.10
2018-09-24T10:27:29.744Z,70.30
2018-09-24T10:30:03.682Z,69.60
2018-09-24T10:32:37.677Z,67.80
2018-09-24T10:35:11.631Z,65.90
2018-09-24T10:37:52.621Z,65.00
2018-09-24T10:40:26.551Z,66.70
2018-09-24T10:43:00.494Z,67.70
2018-09-24T10:45:34.383Z,66.50
2018-09-24T10:48:08.405Z,65.70
2018-09-24T10:50:42.299Z,65.80
2018-09-24T10:53:16.099Z,66.40
2018-09-24T10:55:50.172Z,67.00
2018-09-24T10:58:24.309Z,65.00
2018-09-24T11:00:58.329Z,68.50
2018-09-24T11:03:32.379Z,66.90
2018-09-24T11:06:06.367Z,65.90
2018-09-24T11:08:40.330Z,65.10
2018-09-24T11:11:14.307Z,64.80
2018-09-24T11:13:48.327Z,63.70
2018-09-24T11:16:22.278Z,60.90
2018-09-24T11:18:56.208Z,61.60
2018-09-24T11:21:30.219Z,61.70
2018-09-24T11:24:03.992Z,63.60
2018-09-24T11:26:37.960Z,60.50
2018-09-24T11:29:11.851Z,62.10
2018-09-24T11:31:45.812Z,61.60
2018-09-24T11:34:19.778Z,64.50
2018-09-24T11:36:53.629Z,64.30
2018-09-24T11:39:27.491Z,67.30
2018-09-24T11:42:01.363Z,68.70
2018-09-24T11:44:35.202Z,69.20
2018-09-24T11:47:09.268Z,69.70
2018-09-24T11:49:43.186Z,71.30
2018-09-24T11:52:17.202Z,72.10
2018-09-24T11:54:51.146Z,69.70
2018-09-24T11:57:25.060Z,69.80
2018-09-24T11:59:58.950Z,69.20
2018-09-24T12:02:32.840Z,67.20
2018-09-24T12:05:06.763Z,66.10
2018-09-24T12:07:40.703Z,67.60
2018-09-24T12:10:14.797Z,61.00
2018-09-24T12:12:48.562Z,60.50
2018-09-24T12:15:22.370Z,63.40
2018-09-24T12:17:56.332Z,63.20
2018-09-24T12:20:30.452Z,59.20
2018-09-24T12:23:04.622Z,55.90
2018-09-24T12:25:38.552Z,60.00
2018-09-24T12:28:12.854Z,65.10
2018-09-24T12:30:46.671Z,68.80
2018-09-24T12:33:20.507Z,69.30
2018-09-24T12:35:54.516Z,67.70
2018-09-24T12:38:28.563Z,66.00
2018-09-24T12:41:02.583Z,67.00
2018-09-24T12:43:36.439Z,66.40
2018-09-24T12:46:10.684Z,65.30
2018-09-24T12:48:45.079Z,62.60
2018-09-24T12:51:18.983Z,60.40
2018-09-24T12:53:52.981Z,60.10
2018-09-24T12:56:26.840Z,59.80
2018-09-24T12:59:00.836Z,60.40
2018-09-24T13:01:34.825Z,61.10
2018-09-24T13:04:08.691Z,60.60
2018-09-24T13:06:42.570Z,58.00
2018-09-24T13:09:16.544Z,56.90
2018-09-24T13:11:50.562Z,57.00
2018-09-24T13:14:24.474Z,56.60
2018-09-24T13:16:58.374Z,56.80
2018-09-24T13:19:32.287Z,58.50
2018-09-24T13:22:06.359Z,58.80
2018-09-24T13:24:40.390Z,58.00
2018-09-24T13:27:14.344Z,58.10
2018-09-24T13:29:48.439Z,63.20
2018-09-24T13:32:22.351Z,72.40
2018-09-24T13:34:56.316Z,79.30
2018-09-24T13:37:30.155Z,83.80
2018-09-24T13:40:04.025Z,84.40
2018-09-24T13:42:38.134Z,84.30
2018-09-24T13:45:12.106Z,83.60
2018-09-24T13:47:45.915Z,83.00
2018-09-24T13:50:19.919Z,83.30
2018-09-24T13:52:53.972Z,81.60
2018-09-24T13:55:27.765Z,81.60
2018-09-24T13:58:01.760Z,77.50
2018-09-24T14:00:35.762Z,80.00
2018-09-24T14:03:09.826Z,82.80
2018-09-24T14:05:43.868Z,81.10
2018-09-24T14:08:17.731Z,79.40
2018-09-24T14:10:51.562Z,80.30
2018-09-24T14:13:25.610Z,74.60
2018-09-24T14:15:59.340Z,73.30
2018-09-24T14:18:33.282Z,70.60
2018-09-24T14:21:07.295Z,71.60
2018-09-24T14:23:41.518Z,73.00
2018-09-24T14:26:15.548Z,69.60
2018-09-24T14:28:49.441Z,72.50
2018-09-24T14:31:23.328Z,71.70
2018-09-24T14:33:57.463Z,73.30
2018-09-24T14:36:31.488Z,70.50
2018-09-24T14:39:05.449Z,69.70
2018-09-24T14:41:39.427Z,72.80
2018-09-24T14:44:13.446Z,71.10
2018-09-24T14:46:47.387Z,72.80
2018-09-24T14:49:21.355Z,71.20
2018-09-24T14:51:55.997Z,72.40
2018-09-24T14:54:29.939Z,69.20
2018-09-24T14:57:03.861Z,71.70
2018-09-24T14:59:37.686Z,71.60
2018-09-24T15:02:11.863Z,71.90
2018-09-24T15:04:45.908Z,73.40
2018-09-24T15:07:19.803Z,74.80
2018-09-24T15:09:53.696Z,73.70
2018-09-24T15:12:27.609Z,75.90
2018-09-24T15:15:02.399Z,75.70
2018-09-24T15:17:36.305Z,74.50
2018-09-24T15:20:10.241Z,74.90
2018-09-24T15:22:44.132Z,74.90
2018-09-24T15:25:18.464Z,74.80
2018-09-24T15:27:52.431Z,75.50
2018-09-24T15:30:26.353Z,76.40
2018-09-24T15:33:00.414Z,74.80
2018-09-24T15:35:34.447Z,75.60
2018-09-24T15:38:08.355Z,75.90
2018-09-24T15:40:42.391Z,76.20
2018-09-24T15:43:16.339Z,76.00
2018-09-24T15:45:50.546Z,76.50
2018-09-24T15:48:24.483Z,76.60
2018-09-24T15:50:58.435Z,76.50
2018-09-24T15:53:32.336Z,76.50
2018-09-24T15:56:06.348Z,76.50
2018-09-24T15:58:40.163Z,77.10
2018-09-24T16:01:14.206Z,74.50
2018-09-24T16:03:48.079Z,73.30
2018-09-24T16:06:21.936Z,73.70
2018-09-24T16:08:56.017Z,72.00
2018-09-24T16:11:29.831Z,73.70
2018-09-24T16:14:03.692Z,72.30
2018-09-24T16:16:37.658Z,71.70
2018-09-24T16:19:11.775Z,72.00
2018-09-24T16:21:45.624Z,72.40
2018-09-24T16:24:19.411Z,80.00
2018-09-24T16:26:53.254Z,81.80
2018-09-24T16:29:27.165Z,82.80
2018-09-24T16:32:01.107Z,80.20
2018-09-24T16:34:35.086Z,82.10
2018-09-24T16:37:09.014Z,83.40
2018-09-24T16:39:42.946Z,86.10
2018-09-24T16:42:16.924Z,86.50
2018-09-24T16:44:50.923Z,82.80
2018-09-24T16:47:24.899Z,83.40
2018-09-24T16:49:58.925Z,83.80
2018-09-24T16:52:32.904Z,85.20
2018-09-24T16:55:07.092Z,84.60
2018-09-24T16:57:40.963Z,87.00
2018-09-24T17:00:15.120Z,82.40
2018-09-24T17:02:49.064Z,81.30
2018-09-24T17:05:22.972Z,85.50
2018-09-24T17:07:56.882Z,89.60
2018-09-24T17:10:30.942Z,90.50
2018-09-24T17:13:04.783Z,91.30
2018-09-24T17:15:38.970Z,91.80
2018-09-24T17:18:13.033Z,92.00
2018-09-24T17:20:46.961Z,92.00
2018-09-24T17:23:20.852Z,92.00
2018-09-24T17:25:54.611Z,92.80
2018-09-24T17:28:28.527Z,92.40
2018-09-24T17:31:02.792Z,92.60
2018-09-24T17:33:36.771Z,92.40
2018-09-24T17:36:10.820Z,92.40
2018-09-24T17:38:44.683Z,92.30
2018-09-24T17:41:18.544Z,92.60
2018-09-24T17:43:52.434Z,92.70
2018-09-24T17:46:26.311Z,92.80
2018-09-24T17:49:00.263Z,93.20
2018-09-24T17:51:34.079Z,93.20
2018-09-24T17:54:07.823Z,93.20
2018-09-24T17:56:41.791Z,93.60
2018-09-24T17:59:15.825Z,93.80
2018-09-24T18:01:49.620Z,93.40
2018-09-24T18:04:23.528Z,93.90
2018-09-24T18:06:57.331Z,93.70
2018-09-24T18:09:31.283Z,94.10
2018-09-24T18:12:05.327Z,94.30
2018-09-24T18:14:39.268Z,93.50
2018-09-24T18:17:13.175Z,93.10
2018-09-24T18:19:47.020Z,93.30
2018-09-24T18:22:20.921Z,93.60
2018-09-24T18:24:54.782Z,92.90
2018-09-24T18:27:28.619Z,93.10
2018-09-24T18:30:02.491Z,93.00
2018-09-24T18:32:36.486Z,93.20
2018-09-24T18:35:10.424Z,92.70
2018-09-24T18:37:44.346Z,93.20
2018-09-24T18:40:18.197Z,92.80
2018-09-24T18:42:52.028Z,93.40
2018-09-24T18:45:26.073Z,93.80
2018-09-24T18:48:00.061Z,93.90
2018-09-24T18:50:33.827Z,93.70
2018-09-24T18:53:07.545Z,94.00
2018-09-24T18:55:41.451Z,93.80
2018-09-24T18:58:15.376Z,94.10
2018-09-24T19:00:49.238Z,94.00
2018-09-24T19:03:23.020Z,93.90
2018-09-24T19:05:57.000Z,94.50
2018-09-24T19:08:30.847Z,94.50
2018-09-24T19:11:04.783Z,94.40
2018-09-24T19:13:38.722Z,94.60
2018-09-24T19:16:12.605Z,95.00
2018-09-24T19:18:46.528Z,94.00
2018-09-24T19:21:20.533Z,94.10
2018-09-24T19:23:54.695Z,94.00
2018-09-24T19:26:28.671Z,93.90
2018-09-24T19:29:02.718Z,93.90
2018-09-24T19:31:36.624Z,93.70
2018-09-24T19:34:10.487Z,93.90
2018-09-24T19:36:44.459Z,93.90
2018-09-24T19:39:18.272Z,93.90
2018-09-24T19:41:52.183Z,94.20
2018-09-24T19:44:26.060Z,94.20
2018-09-24T19:47:00.187Z,94.30
2018-09-24T19:49:34.039Z,94.30
2018-09-24T19:52:08.064Z,94.30
2018-09-24T19:54:41.934Z,94.20
2018-09-24T19:57:15.890Z,94.20
2018-09-24T19:59:49.869Z,94.10
2018-09-24T20:02:23.808Z,94.10
2018-09-24T20:04:57.648Z,94.10
2018-09-24T20:07:31.612Z,94.20
2018-09-24T20:10:05.611Z,94.20
2018-09-24T20:12:39.487Z,94.20
2018-09-24T20:15:13.455Z,94.60
2018-09-24T20:17:47.480Z,94.20
2018-09-24T20:20:21.334Z,94.30
2018-09-24T20:22:55.334Z,94.20
2018-09-24T20:25:29.219Z,94.40
2018-09-24T20:28:02.971Z,94.30
2018-09-24T20:30:36.899Z,94.10
2018-09-24T20:33:10.759Z,94.10
2018-09-24T20:35:44.615Z,94.00
2018-09-24T20:38:18.663Z,94.50
2018-09-24T20:40:52.696Z,95.00
2018-09-24T20:43:26.672Z,95.20
2018-09-24T20:46:00.796Z,95.20
2018-09-24T20:48:34.879Z,95.30
2018-09-24T20:51:08.923Z,95.20
2018-09-24T20:53:42.797Z,95.20
2018-09-24T20:56:16.576Z,95.20
2018-09-24T20:58:50.597Z,95.30
2018-09-24T21:01:24.648Z,95.30
2018-09-24T21:03:58.431Z,95.30
2018-09-24T21:06:32.422Z,95.20
2018-09-24T21:09:06.321Z,95.20
2018-09-24T21:11:40.188Z,95.60
2018-09-24T21:14:13.959Z,95.40
2018-09-24T21:16:47.999Z,95.40
2018-09-24T21:19:22.031Z,95.50
2018-09-24T21:21:56.083Z,95.60
2018-09-24T21:24:29.991Z,95.50
2018-09-24T21:27:03.984Z,95.70
2018-09-24T21:29:37.747Z,95.70
2018-09-24T21:32:11.824Z,95.70
2018-09-24T21:34:45.911Z,95.70
2018-09-24T21:37:19.732Z,95.70
2018-09-24T21:39:53.595Z,95.80
2018-09-24T21:42:27.576Z,95.60
2018-09-24T21:45:01.627Z,95.70
2018-09-24T21:47:35.587Z,95.80
2018-09-24T21:50:09.431Z,95.90
2018-09-24T21:52:43.314Z,95.80
2018-09-24T21:55:17.096Z,96.00
2018-09-24T21:57:51.136Z,95.80
2018-09-24T22:00:25.205Z,95.80
2018-09-24T22:02:59.046Z,95.80
2018-09-24T22:05:32.918Z,96.00
2018-09-24T22:08:06.828Z,96.00
2018-09-24T22:10:40.723Z,96.10
2018-09-24T22:13:14.850Z,96.10
2018-09-24T22:15:48.759Z,96.10
2018-09-24T22:18:22.568Z,96.30
2018-09-24T22:20:56.592Z,96.40
2018-09-24T22:23:30.535Z,96.60
2018-09-24T22:26:04.504Z,96.40
2018-09-24T22:28:38.375Z,96.40
2018-09-24T22:31:12.259Z,96.50
2018-09-24T22:33:46.156Z,96.40
2018-09-24T22:36:20.046Z,96.70
2018-09-24T22:38:53.835Z,96.30
2018-09-24T22:41:27.698Z,96.30
2018-09-24T22:44:01.671Z,96.30
2018-09-24T22:46:35.735Z,96.20
2018-09-24T22:49:09.572Z,96.20
2018-09-24T22:51:43.512Z,96.20
2018-09-24T22:54:17.438Z,96.30
2018-09-24T22:56:51.192Z,96.50
2018-09-24T22:59:25.303Z,96.60
2018-09-24T23:01:59.671Z,96.40
2018-09-24T23:04:33.623Z,96.60
2018-09-24T23:07:07.371Z,96.60
2018-09-24T23:09:41.364Z,96.50
2018-09-24T23:12:15.207Z,96.60
2018-09-24T23:14:49.042Z,96.60
2018-09-24T23:17:23.010Z,96.60
2018-09-24T23:19:57.187Z,96.60
2018-09-24T23:22:31.072Z,96.60
2018-09-24T23:25:05.055Z,96.60
2018-09-24T23:27:38.776Z,96.50
2018-09-24T23:30:12.757Z,96.40
2018-09-24T23:32:46.756Z,96.40
2018-09-24T23:35:20.959Z,96.40
2018-09-24T23:37:54.995Z,96.40
2018-09-24T23:40:28.900Z,96.50
2018-09-24T23:43:02.716Z,96.70
2018-09-24T23:45:36.799Z,96.60
2018-09-24T23:48:10.588Z,96.60
2018-09-24T23:50:44.459Z,96.60
2018-09-24T23:53:18.306Z,96.50
2018-09-24T23:55:52.268Z,96.50
2018-09-24T23:58:26.191Z,96.60
